createdAt,value
2019-04-28T00:01:22.817Z,9.98
2019-04-28T00:04:01.381Z,11.43
2019-04-28T00:06:41.748Z,10.70
2019-04-28T00:09:21.289Z,10.35
2019-04-28T00:12:01.736Z,10.68
2019-04-28T00:14:41.825Z,10.70
2019-04-28T00:17:21.273Z,9.73
2019-04-28T00:20:01.373Z,10.20
2019-04-28T00:22:54.309Z,10.15
2019-04-28T00:25:33.889Z,9.10
2019-04-28T00:28:11.719Z,9.13
2019-04-28T00:30:51.614Z,9.18
2019-04-28T00:33:28.685Z,9.65
2019-04-28T00:36:06.585Z,9.05
2019-04-28T00:38:44.732Z,9.23
2019-04-28T00:41:22.297Z,10.10
2019-04-28T00:43:59.423Z,10.25
2019-04-28T00:46:41.008Z,9.45
2019-04-28T00:49:23.326Z,9.33
2019-04-28T00:52:03.107Z,8.45
2019-04-28T00:54:42.059Z,8.90
2019-04-28T00:57:21.063Z,9.58
2019-04-28T01:00:02.075Z,8.80
2019-04-28T01:02:44.863Z,9.40
2019-04-28T01:05:22.002Z,9.70
2019-04-28T01:08:01.157Z,9.43
2019-04-28T01:10:40.891Z,8.83
2019-04-28T01:13:18.673Z,8.25
2019-04-28T01:16:19.323Z,8.48
2019-04-28T01:19:05.499Z,8.85
2019-04-28T01:22:03.288Z,8.33
2019-04-28T01:24:41.083Z,7.90
2019-04-28T01:27:37.528Z,7.58
2019-04-28T01:30:22.972Z,10.45
2019-04-28T01:33:06.129Z,9.08
2019-04-28T01:35:43.782Z,8.98
2019-04-28T01:38:21.319Z,8.33
2019-04-28T01:40:59.956Z,8.03
2019-04-28T01:43:38.303Z,7.20
2019-04-28T01:46:19.859Z,7.90
2019-04-28T01:48:59.914Z,8.23
2019-04-28T01:51:38.075Z,7.75
2019-04-28T01:54:17.567Z,7.25
2019-04-28T01:56:54.963Z,7.92
2019-04-28T01:59:32.100Z,7.42
2019-04-28T02:02:10.353Z,7.60
2019-04-28T02:04:49.909Z,7.20
2019-04-28T02:07:32.918Z,8.15
2019-04-28T02:10:11.132Z,8.00
2019-04-28T02:12:50.301Z,7.83
2019-04-28T02:15:30.060Z,7.87
2019-04-28T02:18:09.998Z,8.55
2019-04-28T02:20:51.882Z,7.03
2019-04-28T02:23:32.815Z,8.03
2019-04-28T02:26:12.078Z,8.50
2019-04-28T02:28:50.440Z,7.97
2019-04-28T02:31:27.438Z,7.30
2019-04-28T02:34:04.925Z,7.55
2019-04-28T02:36:43.525Z,7.47
2019-04-28T02:39:21.205Z,7.17
2019-04-28T02:42:00.994Z,7.47
2019-04-28T02:44:40.263Z,7.25
2019-04-28T02:47:17.207Z,7.92
2019-04-28T02:50:02.535Z,8.08
2019-04-28T02:53:04.465Z,7.22
2019-04-28T02:55:42.126Z,7.47
2019-04-28T02:58:22.373Z,7.15
2019-04-28T03:01:10.709Z,7.50
2019-04-28T03:03:40.838Z,7.08
2019-04-28T03:06:20.662Z,6.40
2019-04-28T03:09:00.209Z,6.25
2019-04-28T03:11:37.600Z,7.00
2019-04-28T03:14:15.045Z,6.80
2019-04-28T03:16:52.680Z,5.83
2019-04-28T03:19:33.778Z,6.60
2019-04-28T03:22:11.563Z,5.87
2019-04-28T03:24:51.273Z,5.33
2019-04-28T03:28:03.134Z,7.25
2019-04-28T03:33:48.972Z,5.92
2019-04-28T03:36:24.285Z,6.47
2019-04-28T03:39:02.002Z,6.22
2019-04-28T03:41:41.339Z,5.80
2019-04-28T03:44:20.852Z,6.67
2019-04-28T03:47:02.743Z,6.55
2019-04-28T03:49:37.391Z,5.60
2019-04-28T03:52:15.191Z,5.55
2019-04-28T03:54:53.662Z,5.92
2019-04-28T03:57:31.680Z,6.00
2019-04-28T04:00:12.098Z,6.15
2019-04-28T04:02:51.771Z,5.67
2019-04-28T04:05:30.609Z,4.92
2019-04-28T04:08:10.669Z,3.90
2019-04-28T04:11:00.275Z,5.45
2019-04-28T04:13:51.405Z,4.28
2019-04-28T04:16:47.323Z,4.97
2019-04-28T04:19:26.752Z,5.20
2019-04-28T04:22:04.342Z,4.97
2019-04-28T04:24:42.981Z,5.58
2019-04-28T04:27:21.220Z,6.00
2019-04-28T04:30:01.764Z,4.70
2019-04-28T04:32:41.154Z,5.62
2019-04-28T04:35:21.426Z,5.47
2019-04-28T04:38:00.462Z,4.80
2019-04-28T04:40:38.141Z,5.80
2019-04-28T04:43:15.984Z,6.10
2019-04-28T04:45:56.532Z,5.87
2019-04-28T04:48:33.894Z,6.42
2019-04-28T04:51:11.285Z,5.47
2019-04-28T04:53:50.978Z,4.60
2019-04-28T04:56:30.026Z,5.60
2019-04-28T04:59:10.276Z,5.22
2019-04-28T05:01:54.689Z,5.70
2019-04-28T05:04:41.715Z,5.40
2019-04-28T05:07:20.698Z,5.70
2019-04-28T05:09:59.536Z,5.58
2019-04-28T05:12:37.556Z,5.10
2019-04-28T05:15:15.495Z,6.22
2019-04-28T05:17:53.145Z,6.15
2019-04-28T05:20:30.950Z,6.10
2019-04-28T05:23:25.530Z,5.85
2019-04-28T05:26:07.914Z,6.22
2019-04-28T05:28:50.471Z,5.70
2019-04-28T05:31:24.432Z,5.62
2019-04-28T05:34:04.235Z,5.90
2019-04-28T05:36:44.666Z,5.42
2019-04-28T05:39:23.125Z,5.42
2019-04-28T05:42:01.026Z,6.85
2019-04-28T05:44:40.594Z,3.62
2019-04-28T05:47:20.344Z,4.50
2019-04-28T05:50:13.170Z,5.78
2019-04-28T05:53:10.626Z,5.15
2019-04-28T05:55:56.022Z,4.90
2019-04-28T05:58:58.072Z,4.42
2019-04-28T06:01:54.597Z,4.33
2019-04-28T06:04:33.496Z,4.40
2019-04-28T06:07:22.325Z,4.95
2019-04-28T06:10:01.568Z,4.83
2019-04-28T06:12:40.602Z,4.60
2019-04-28T06:15:20.403Z,4.40
2019-04-28T06:17:57.823Z,4.87
2019-04-28T06:20:35.296Z,5.33
2019-04-28T06:23:13.809Z,5.40
2019-04-28T06:25:52.307Z,4.30
2019-04-28T06:28:29.422Z,4.67
2019-04-28T06:31:07.259Z,4.83
2019-04-28T06:33:46.194Z,4.90
2019-04-28T06:36:23.877Z,4.50
2019-04-28T06:39:01.553Z,4.12
2019-04-28T06:41:41.280Z,4.42
2019-04-28T06:44:19.846Z,4.50
2019-04-28T06:46:56.999Z,5.00
2019-04-28T06:49:34.231Z,4.47
2019-04-28T06:52:12.352Z,5.12
2019-04-28T06:54:50.221Z,5.20
2019-04-28T06:57:27.783Z,5.05
2019-04-28T07:00:06.427Z,4.87
2019-04-28T07:02:44.391Z,4.67
2019-04-28T07:05:22.977Z,4.70
2019-04-28T07:08:01.041Z,5.50
2019-04-28T07:10:38.713Z,5.20
2019-04-28T07:13:17.288Z,4.95
2019-04-28T07:15:56.239Z,4.00
2019-04-28T07:18:33.421Z,4.60
2019-04-28T07:21:22.443Z,4.47
2019-04-28T07:24:00.654Z,4.50
2019-04-28T07:26:40.173Z,5.28
2019-04-28T07:29:21.052Z,5.03
2019-04-28T07:31:58.429Z,5.70
2019-04-28T07:34:36.364Z,5.72
2019-04-28T07:37:14.345Z,4.92
2019-04-28T07:39:52.217Z,4.10
2019-04-28T07:42:29.311Z,6.03
2019-04-28T07:45:07.799Z,4.70
2019-04-28T07:47:45.252Z,4.70
2019-04-28T07:50:22.215Z,4.85
2019-04-28T07:53:05.361Z,4.85
2019-04-28T07:55:42.553Z,4.62
2019-04-28T07:58:20.436Z,5.30
2019-04-28T08:00:57.775Z,6.97
2019-04-28T08:03:48.518Z,4.95
2019-04-28T08:06:14.835Z,5.10
2019-04-28T08:08:53.279Z,5.20
2019-04-28T08:11:31.299Z,4.70
2019-04-28T08:14:09.327Z,4.97
2019-04-28T08:16:49.335Z,4.80
2019-04-28T08:19:28.614Z,5.00
2019-04-28T08:22:05.911Z,5.08
2019-04-28T08:24:43.731Z,4.25
2019-04-28T08:27:21.494Z,4.85
2019-04-28T08:29:59.142Z,5.35
2019-04-28T08:32:54.000Z,4.55
2019-04-28T08:35:32.322Z,4.70
2019-04-28T08:38:09.682Z,4.47
2019-04-28T08:40:48.627Z,5.12
2019-04-28T08:43:27.459Z,5.30
2019-04-28T08:46:04.721Z,4.67
2019-04-28T08:48:43.370Z,5.58
2019-04-28T08:51:21.582Z,5.10
2019-04-28T08:53:59.540Z,6.72
2019-04-28T08:56:37.253Z,5.40
2019-04-28T08:59:15.017Z,5.58
2019-04-28T09:01:52.712Z,4.87
2019-04-28T09:04:30.278Z,5.75
2019-04-28T09:07:07.942Z,5.70
2019-04-28T09:09:45.154Z,4.60
2019-04-28T09:12:23.531Z,4.78
2019-04-28T09:15:01.217Z,5.00
2019-04-28T09:17:40.992Z,5.42
2019-04-28T09:20:19.986Z,5.85
2019-04-28T09:22:57.722Z,5.10
2019-04-28T09:25:35.720Z,5.47
2019-04-28T09:28:13.495Z,6.03
2019-04-28T09:30:51.085Z,5.62
2019-04-28T09:33:28.255Z,4.85
2019-04-28T09:36:05.546Z,6.03
2019-04-28T09:38:42.761Z,5.20
2019-04-28T09:41:22.878Z,4.92
2019-04-28T09:46:45.264Z,4.90
2019-04-28T09:49:22.502Z,5.12
2019-04-28T09:52:00.378Z,5.85
2019-04-28T09:54:37.647Z,5.50
2019-04-28T09:57:15.421Z,4.90
2019-04-28T09:59:52.970Z,4.30
2019-04-28T10:02:30.966Z,5.30
2019-04-28T10:08:11.530Z,5.37
2019-04-28T10:14:34.305Z,3.52
2019-04-28T10:16:55.421Z,3.08
2019-04-28T10:19:33.865Z,3.10
2019-04-28T10:22:11.058Z,3.17
2019-04-28T10:24:48.541Z,2.55
2019-04-28T10:27:25.950Z,2.90
2019-04-28T10:30:04.208Z,3.65
2019-04-28T10:32:42.628Z,5.35
2019-04-28T10:35:20.339Z,5.42
2019-04-28T10:37:57.916Z,3.27
2019-04-28T10:41:02.878Z,3.20
2019-04-28T10:43:40.566Z,3.70
2019-04-28T10:46:17.972Z,4.05
2019-04-28T10:48:55.287Z,3.95
2019-04-28T10:51:33.834Z,3.45
2019-04-28T10:54:10.872Z,4.00
2019-04-28T10:56:48.578Z,3.62
2019-04-28T10:59:25.971Z,3.98
2019-04-28T11:02:03.634Z,3.83
2019-04-28T11:04:49.042Z,3.70
2019-04-28T11:07:26.724Z,2.70
2019-04-28T11:10:09.971Z,3.10
2019-04-28T11:12:48.113Z,3.20
2019-04-28T11:15:35.473Z,3.80
2019-04-28T11:18:13.864Z,3.45
2019-04-28T11:20:50.892Z,3.77
2019-04-28T11:23:29.626Z,4.00
2019-04-28T11:26:06.941Z,3.80
2019-04-28T11:28:44.261Z,3.92
2019-04-28T11:31:24.221Z,4.05
2019-04-28T11:34:11.436Z,4.40
2019-04-28T11:36:48.653Z,4.70
2019-04-28T11:39:35.009Z,4.37
2019-04-28T11:42:12.372Z,4.78
2019-04-28T11:44:50.114Z,3.90
2019-04-28T11:47:27.398Z,4.17
2019-04-28T11:50:06.155Z,4.08
2019-04-28T11:52:43.416Z,4.30
2019-04-28T11:55:22.161Z,4.03
2019-04-28T11:57:59.185Z,4.22
2019-04-28T12:00:37.411Z,3.83
2019-04-28T12:03:14.355Z,4.10
2019-04-28T12:05:52.920Z,3.62
2019-04-28T12:08:30.086Z,3.33
2019-04-28T12:11:17.604Z,4.10
2019-04-28T12:14:18.631Z,4.08
2019-04-28T12:17:14.592Z,3.83
2019-04-28T12:19:55.627Z,4.47
2019-04-28T12:22:33.344Z,3.98
2019-04-28T12:25:10.821Z,3.90
2019-04-28T12:27:50.148Z,3.77
2019-04-28T12:30:27.041Z,3.90
2019-04-28T12:33:04.793Z,3.90
2019-04-28T12:35:48.056Z,3.85
2019-04-28T12:38:21.679Z,3.72
2019-04-28T12:40:58.668Z,3.87
2019-04-28T12:43:36.462Z,4.47
2019-04-28T12:46:13.843Z,5.00
2019-04-28T12:48:55.176Z,5.05
2019-04-28T12:51:32.384Z,5.10
2019-04-28T12:54:11.194Z,4.50
2019-04-28T12:56:48.757Z,4.65
2019-04-28T12:59:33.752Z,5.83
2019-04-28T13:02:36.661Z,5.35
2019-04-28T13:05:15.727Z,5.00
2019-04-28T13:07:53.147Z,4.42
2019-04-28T13:10:30.973Z,4.95
2019-04-28T13:13:08.364Z,5.00
2019-04-28T13:15:46.525Z,4.40
2019-04-28T13:18:24.045Z,4.58
2019-04-28T13:21:02.174Z,5.10
2019-04-28T13:23:39.783Z,5.03
2019-04-28T13:26:16.913Z,4.42
2019-04-28T13:28:54.289Z,4.87
2019-04-28T13:31:33.017Z,4.70
2019-04-28T13:34:11.761Z,5.85
2019-04-28T13:36:49.515Z,5.33
2019-04-28T13:39:32.501Z,5.12
2019-04-28T13:42:10.464Z,5.12
2019-04-28T13:44:54.620Z,5.47
2019-04-28T13:47:33.488Z,5.22
2019-04-28T13:50:19.942Z,5.00
2019-04-28T13:52:58.012Z,4.75
2019-04-28T13:55:59.733Z,5.10
2019-04-28T13:58:40.286Z,5.87
2019-04-28T14:01:35.370Z,5.60
2019-04-28T14:04:28.188Z,5.42
2019-04-28T14:07:08.177Z,5.12
2019-04-28T14:09:45.669Z,5.37
2019-04-28T14:12:23.120Z,5.55
2019-04-28T14:15:01.610Z,4.80
2019-04-28T14:17:39.980Z,4.95
2019-04-28T14:20:18.490Z,5.70
2019-04-28T14:22:56.046Z,5.20
2019-04-28T14:25:33.770Z,5.47
2019-04-28T14:28:10.999Z,4.80
2019-04-28T14:30:48.741Z,5.17
2019-04-28T14:33:26.061Z,5.20
2019-04-28T14:36:05.427Z,5.20
2019-04-28T14:38:43.296Z,5.22
2019-04-28T14:41:20.840Z,4.78
2019-04-28T14:43:58.408Z,5.90
2019-04-28T14:46:36.761Z,4.30
2019-04-28T14:49:13.907Z,6.12
2019-04-28T14:51:51.690Z,5.87
2019-04-28T14:54:28.919Z,5.40
2019-04-28T14:57:06.637Z,5.40
2019-04-28T14:59:45.323Z,5.62
2019-04-28T15:02:44.556Z,6.28
2019-04-28T15:05:30.307Z,7.35
2019-04-28T15:08:36.248Z,6.20
2019-04-28T15:11:20.039Z,8.40
2019-04-28T15:13:56.964Z,28.23
2019-04-28T15:16:33.804Z,5.22
2019-04-28T15:19:12.123Z,5.53
2019-04-28T15:21:51.132Z,5.28
2019-04-28T15:24:29.957Z,5.62
2019-04-28T15:27:07.349Z,5.25
2019-04-28T15:29:45.404Z,5.95
2019-04-28T15:32:22.374Z,5.80
2019-04-28T15:35:00.201Z,5.90
2019-04-28T15:37:38.067Z,5.62
2019-04-28T15:40:18.284Z,5.08
2019-04-28T15:42:55.528Z,4.87
2019-04-28T15:45:33.468Z,4.97
2019-04-28T15:48:11.087Z,5.05
2019-04-28T15:50:51.100Z,5.37
2019-04-28T15:53:28.350Z,5.37
2019-04-28T15:56:27.774Z,5.45
2019-04-28T15:59:05.316Z,5.45
2019-04-28T16:01:43.275Z,5.65
2019-04-28T16:04:20.611Z,5.80
2019-04-28T16:06:57.836Z,6.12
2019-04-28T16:09:35.770Z,5.65
2019-04-28T16:12:14.674Z,6.20
2019-04-28T16:14:52.184Z,5.60
2019-04-28T16:17:30.412Z,5.53
2019-04-28T16:20:08.135Z,5.33
2019-04-28T16:22:47.182Z,5.37
2019-04-28T16:25:25.442Z,5.10
2019-04-28T16:28:03.076Z,4.92
2019-04-28T16:30:40.600Z,5.33
2019-04-28T16:33:18.724Z,4.72
2019-04-28T16:35:57.459Z,5.28
2019-04-28T16:38:35.664Z,5.05
2019-04-28T16:41:15.478Z,5.15
2019-04-28T16:43:57.404Z,5.00
2019-04-28T16:46:34.728Z,4.78
2019-04-28T16:49:12.105Z,5.03
2019-04-28T16:51:49.118Z,5.08
2019-04-28T16:54:27.697Z,4.53
2019-04-28T16:57:23.244Z,5.87
2019-04-28T17:00:22.135Z,5.15
2019-04-28T17:02:59.524Z,5.80
2019-04-28T17:05:37.205Z,5.67
2019-04-28T17:08:14.337Z,6.47
2019-04-28T17:10:51.449Z,6.17
2019-04-28T17:13:29.346Z,6.03
2019-04-28T17:16:09.263Z,6.10
2019-04-28T17:18:47.180Z,6.30
2019-04-28T17:21:27.177Z,6.10
2019-04-28T17:24:04.498Z,5.72
2019-04-28T17:26:44.130Z,6.35
2019-04-28T17:29:21.238Z,5.12
2019-04-28T17:31:59.259Z,5.72
2019-04-28T17:34:36.664Z,5.17
2019-04-28T17:37:15.637Z,5.00
2019-04-28T17:39:52.711Z,4.20
2019-04-28T17:42:30.587Z,4.00
2019-04-28T17:45:09.399Z,3.80
2019-04-28T17:47:48.265Z,3.67
2019-04-28T17:50:37.140Z,3.80
2019-04-28T17:53:15.444Z,4.10
2019-04-28T17:55:52.499Z,3.72
2019-04-28T17:58:30.386Z,4.50
2019-04-28T18:01:26.004Z,3.80
2019-04-28T18:04:20.369Z,4.55
2019-04-28T18:07:02.790Z,4.00
2019-04-28T18:09:40.711Z,4.05
2019-04-28T18:12:19.426Z,3.87
2019-04-28T18:15:00.792Z,4.55
2019-04-28T18:17:56.283Z,4.30
2019-04-28T18:20:35.244Z,3.85
2019-04-28T18:23:12.766Z,3.95
2019-04-28T18:25:50.287Z,4.58
2019-04-28T18:28:28.297Z,4.62
2019-04-28T18:31:28.009Z,4.12
2019-04-28T18:34:22.170Z,4.00
2019-04-28T18:37:21.941Z,3.58
2019-04-28T18:40:16.562Z,3.72
2019-04-28T18:43:17.086Z,4.83
2019-04-28T18:45:54.965Z,4.40
2019-04-28T18:48:32.820Z,4.28
2019-04-28T18:51:11.673Z,3.70
2019-04-28T18:53:50.038Z,4.40
2019-04-28T18:56:27.165Z,4.00
2019-04-28T18:59:05.381Z,4.92
2019-04-28T19:02:03.754Z,4.40
2019-04-28T19:04:42.198Z,5.03
2019-04-28T19:07:23.945Z,4.60
2019-04-28T19:10:17.284Z,4.08
2019-04-28T19:13:16.316Z,4.30
2019-04-28T19:16:16.534Z,4.42
2019-04-28T19:18:59.393Z,4.12
2019-04-28T19:21:39.149Z,4.42
2019-04-28T19:24:16.823Z,4.72
2019-04-28T19:26:56.747Z,4.30
2019-04-28T19:29:34.272Z,4.40
2019-04-28T19:32:11.700Z,3.70
2019-04-28T19:34:49.178Z,4.40
2019-04-28T19:37:27.262Z,4.30
2019-04-28T19:40:04.569Z,4.08
2019-04-28T19:42:43.543Z,4.25
2019-04-28T19:45:21.734Z,4.50
2019-04-28T19:48:00.540Z,4.08
2019-04-28T19:50:38.220Z,4.00
2019-04-28T19:53:16.228Z,3.90
2019-04-28T19:56:03.251Z,4.25
2019-04-28T19:58:52.395Z,3.52
2019-04-28T20:01:32.545Z,3.65
2019-04-28T20:04:10.376Z,3.90
2019-04-28T20:06:48.097Z,3.50
2019-04-28T20:09:26.597Z,3.70
2019-04-28T20:12:04.097Z,3.40
2019-04-28T20:14:42.292Z,3.47
2019-04-28T20:17:19.622Z,3.33
2019-04-28T20:19:57.873Z,3.35
2019-04-28T20:22:37.514Z,3.30
2019-04-28T20:25:16.694Z,3.33
2019-04-28T20:27:54.309Z,3.30
2019-04-28T20:30:33.867Z,3.47
2019-04-28T20:33:11.689Z,3.12
2019-04-28T20:35:54.366Z,3.50
2019-04-28T20:38:33.268Z,2.85
2019-04-28T20:41:33.238Z,3.20
2019-04-28T20:44:10.327Z,3.35
2019-04-28T20:46:47.354Z,3.10
2019-04-28T20:49:25.022Z,2.90
2019-04-28T20:52:03.772Z,3.30
2019-04-28T20:54:42.496Z,3.25
2019-04-28T20:57:22.642Z,3.17
2019-04-28T21:00:01.177Z,3.10
2019-04-28T21:02:42.132Z,3.10
2019-04-28T21:05:19.783Z,3.10
2019-04-28T21:07:58.592Z,3.22
2019-04-28T21:10:38.218Z,3.33
2019-04-28T21:13:20.381Z,3.60
2019-04-28T21:15:57.775Z,3.30
2019-04-28T21:18:35.426Z,3.40
2019-04-28T21:21:13.423Z,3.35
2019-04-28T21:23:52.114Z,3.60
2019-04-28T21:26:30.140Z,2.98
2019-04-28T21:29:10.321Z,3.42
2019-04-28T21:31:49.490Z,3.58
2019-04-28T21:34:28.082Z,3.08
2019-04-28T21:37:05.676Z,3.45
2019-04-28T21:39:43.903Z,3.70
2019-04-28T21:42:25.256Z,3.35
2019-04-28T21:45:20.332Z,3.57
2019-04-28T21:47:58.075Z,9.68
2019-04-28T21:50:35.849Z,4.03
2019-04-28T21:53:13.283Z,3.67
2019-04-28T21:55:51.860Z,3.80
2019-04-28T21:58:33.422Z,4.08
2019-04-28T22:01:11.176Z,3.85
2019-04-28T22:03:49.098Z,3.85
2019-04-28T22:06:28.946Z,4.45
2019-04-28T22:09:07.830Z,3.90
2019-04-28T22:11:47.025Z,4.00
2019-04-28T22:14:24.379Z,4.05
2019-04-28T22:17:02.991Z,3.50
2019-04-28T22:19:41.664Z,3.90
2019-04-28T22:22:20.241Z,4.60
2019-04-28T22:25:03.708Z,3.67
2019-04-28T22:27:43.403Z,3.70
2019-04-28T22:30:22.265Z,3.33
2019-04-28T22:33:03.148Z,3.60
2019-04-28T22:35:41.851Z,3.45
2019-04-28T22:38:21.471Z,3.55
2019-04-28T22:40:59.675Z,3.45
2019-04-28T22:43:38.123Z,3.85
2019-04-28T22:46:16.458Z,3.83
2019-04-28T22:48:57.222Z,4.35
2019-04-28T22:51:35.823Z,4.75
2019-04-28T22:54:26.001Z,3.95
2019-04-28T22:57:15.457Z,3.77
2019-04-28T22:59:53.893Z,4.83
2019-04-28T23:02:32.730Z,4.40
2019-04-28T23:05:11.794Z,5.03
2019-04-28T23:07:49.266Z,6.12
2019-04-28T23:10:27.692Z,6.35
2019-04-28T23:13:05.321Z,8.28
2019-04-28T23:15:43.144Z,6.85
2019-04-28T23:18:20.391Z,7.47
2019-04-28T23:21:01.916Z,6.92
2019-04-28T23:23:43.316Z,6.62
2019-04-28T23:26:21.240Z,6.72
2019-04-28T23:29:00.540Z,5.92
2019-04-28T23:31:39.775Z,5.80
2019-04-28T23:34:18.606Z,5.60
2019-04-28T23:36:57.644Z,5.60
2019-04-28T23:39:35.015Z,5.62
2019-04-28T23:42:28.906Z,5.70
2019-04-28T23:45:06.513Z,5.55
2019-04-28T23:47:44.009Z,5.65
2019-04-28T23:50:29.417Z,6.72
2019-04-28T23:53:12.110Z,6.65
2019-04-28T23:55:49.432Z,5.90
2019-04-28T23:58:27.430Z,7.28
